M I D A S
Marine Information and Data Acquisition System
Tripno 2298 of the Zeeleeuw from 2012-04-27 08:13:43 to 2012-04-27 12:59:57
Back to CruiseResearch ActivitiesStationsMapUnderway DataData graphs

EquipmentUnitsComment
TimeDGPSUTC
LatitudeDGPSDM.mWGS84
LongitudeDGPSDM.mWGS84
HeadingGyrodeg 
SOGDGPSknotsSpeed over ground
COGDGPSdegCourse over ground
DepthEcho soundermeters200 kHz
Missing or incorrect values are displayed as -999
Navigation data collected by the RV Zeeleeuw from 2012-04-27 08:11:11 to 2012-04-27 15:30:21
Time Latitude Longitude Heading SOG COG Depth
2012-04-27 08:12:16 51°13.658 2°55.928 107.9 4.9 289 -999
2012-04-27 08:13:16 51°13.682 2°55.814 106.5 4.1 288 -999
2012-04-27 08:14:16 51°13.696 2°55.755 69.2 0.9 24 -999
2012-04-27 08:15:16 51°13.698 2°55.755 9.7 2 195 -999
2012-04-27 08:16:17 51°13.728 2°55.723 333.2 5.2 331 -999
2012-04-27 08:17:16 51°13.83 2°55.64 337.3 7.7 336 -999
2012-04-27 08:18:16 51°13.943 2°55.564 338.4 7.5 337 -999
2012-04-27 08:19:16 51°14.061 2°55.486 336.9 7.6 336 9.9
2012-04-27 08:20:16 51°14.184 2°55.391 334.7 9.4 333 -999
2012-04-27 08:21:16 51°14.341 2°55.244 331.1 12 330 -999
2012-04-27 08:22:16 51°14.516 2°55.077 330.6 12.3 331 10.1
2012-04-27 08:23:13 51°14.651 2°54.855 304.8 12.5 298 11.1
2012-04-27 08:24:13 51°14.648 2°54.543 248.8 12.2 245 10.2
2012-04-27 08:25:13 51°14.52 2°54.289 225.9 12.6 228 9.7
2012-04-27 08:26:13 51°14.379 2°54.042 224.4 12.7 227 9.4
2012-04-27 08:27:13 51°14.236 2°53.797 227.3 12.7 228 9.1
2012-04-27 08:28:13 51°14.098 2°53.553 227.1 11.3 227 9.1
2012-04-27 08:29:13 51°13.996 2°53.397 219.7 6.9 221 9.3
2012-04-27 08:30:13 51°13.927 2°53.276 233.8 5.7 236 9.1
2012-04-27 08:31:13 51°13.879 2°53.162 233.7 4.5 234 9.4
2012-04-27 08:32:13 51°13.838 2°53.078 227.1 3.8 228 9.4
2012-04-27 08:33:13 51°13.804 2°53.014 225.8 2.7 229 9.4
2012-04-27 08:34:13 51°13.779 2°52.966 230.3 2.1 236 9.5
2012-04-27 08:35:13 51°13.764 2°52.921 239 1.8 247 9.4
2012-04-27 08:36:13 51°13.753 2°52.88 242.5 1.6 252 9.4
2012-04-27 08:37:13 51°13.746 2°52.839 251 2.2 259 9.5
2012-04-27 08:38:13 51°13.751 2°52.765 299.8 3.2 295 9.4
2012-04-27 08:39:13 51°13.794 2°52.712 346.4 3.5 340 9.8
2012-04-27 08:40:13 51°13.852 2°52.665 319.7 4.8 303 9.9
2012-04-27 08:41:13 51°13.84 2°52.54 231.8 4.9 228 9.9
2012-04-27 08:42:13 51°13.781 2°52.516 157.9 3.1 163 10.1
2012-04-27 08:43:13 51°13.742 2°52.546 145 2.1 153 9.9
2012-04-27 08:44:13 51°13.718 2°52.566 142.4 1.2 149 9.7
2012-04-27 08:45:13 51°13.704 2°52.578 139.9 0.8 156 9.7
2012-04-27 08:46:13 51°13.694 2°52.583 139.3 0.6 170 9.7
2012-04-27 08:47:13 51°13.689 2°52.585 135.1 0.3 175 9.6
2012-04-27 08:48:13 51°13.686 2°52.585 135.1 0.2 212 9.6
2012-04-27 08:49:13 51°13.684 2°52.582 138.1 0.2 227 9.7
2012-04-27 08:50:13 51°13.683 2°52.578 137.2 0.2 279 9.7
2012-04-27 08:51:13 51°13.684 2°52.574 132.9 0.2 275 9.8
2012-04-27 08:52:13 51°13.684 2°52.567 129 0.3 269 9.7
2012-04-27 08:53:13 51°13.684 2°52.56 126.1 0.3 271 9.7
2012-04-27 08:54:13 51°13.686 2°52.553 121.7 0.3 280 9.6
2012-04-27 08:55:13 51°13.687 2°52.545 119.7 0.3 294 9.6
2012-04-27 08:56:13 51°13.689 2°52.538 118 0.2 299 9.5
2012-04-27 08:57:13 51°13.689 2°52.531 116 0.3 286 9.6
2012-04-27 08:58:13 51°13.69 2°52.522 114.9 0.3 281 9.6
2012-04-27 08:59:13 51°13.691 2°52.513 118.3 0.3 263 9.8
2012-04-27 09:00:13 51°13.691 2°52.506 121.8 0.2 278 9.7
2012-04-27 09:01:13 51°13.692 2°52.5 123.9 0.3 271 9.8
2012-04-27 09:02:13 51°13.691 2°52.493 123.3 0.2 265 9.7
2012-04-27 09:03:13 51°13.691 2°52.486 123.2 0.2 249 9.7
2012-04-27 09:04:13 51°13.69 2°52.479 123.3 0.3 254 9.7
2012-04-27 09:05:13 51°13.687 2°52.474 125.9 0.5 178 9.7
2012-04-27 09:06:13 51°13.672 2°52.488 130.9 1.5 150 9.7
2012-04-27 09:07:13 51°13.649 2°52.516 131.1 2 137 9.8
2012-04-27 09:08:13 51°13.643 2°52.577 73.4 2.2 77 9.5
2012-04-27 09:09:13 51°13.647 2°52.633 75.6 2.3 71 9.3
2012-04-27 09:10:13 51°13.693 2°52.653 356.1 3.6 341 9.6
2012-04-27 09:11:13 51°13.744 2°52.613 342.4 3.2 329 9.4
2012-04-27 09:12:13 51°13.785 2°52.563 332.6 3 316 9.5
2012-04-27 09:13:13 51°13.816 2°52.506 323.4 2.8 308 9.9
2012-04-27 09:14:13 51°13.843 2°52.446 318.7 2.7 305 10.1
2012-04-27 09:15:13 51°13.862 2°52.398 319.9 1.5 300 10
2012-04-27 09:16:13 51°13.869 2°52.374 318.2 0.7 288 10.1
2012-04-27 09:17:13 51°13.867 2°52.366 316.5 0.3 192 10.2
2012-04-27 09:18:13 51°13.859 2°52.366 336.4 0.7 181 10
2012-04-27 09:19:13 51°13.845 2°52.365 354.7 1.1 189 10
2012-04-27 09:20:13 51°13.827 2°52.356 6.6 1.2 199 10
2012-04-27 09:21:13 51°13.806 2°52.34 19.7 1.5 213 10
2012-04-27 09:22:13 51°13.788 2°52.315 34 1.4 229 9.9
2012-04-27 09:23:13 51°13.777 2°52.29 48 1 243 10.1
2012-04-27 09:24:13 51°13.776 2°52.29 79.3 1 89 10
2012-04-27 09:25:13 51°13.767 2°52.323 110 1.7 122 9.9
2012-04-27 09:26:13 51°13.75 2°52.363 117.1 1.7 127 9.8
2012-04-27 09:27:13 51°13.734 2°52.389 127.2 1.3 150 9.7
2012-04-27 09:28:13 51°13.718 2°52.399 134.3 0.7 168 9.7
2012-04-27 09:29:13 51°13.707 2°52.398 134 0.6 192 9.6
2012-04-27 09:30:13 51°13.676 2°52.403 170 2.8 185 9.5
2012-04-27 09:31:13 51°13.612 2°52.361 206.4 5.4 210 9.7
2012-04-27 09:32:13 51°13.542 2°52.286 214 4.6 216 9.6
2012-04-27 09:33:13 51°13.494 2°52.221 220 3.2 224 9.6
2012-04-27 09:34:13 51°13.464 2°52.172 224.3 2.2 229 9.4
2012-04-27 09:35:13 51°13.448 2°52.127 238.2 1.7 252 9.4
2012-04-27 09:36:13 51°13.44 2°52.088 244 1.4 256 9.5
2012-04-27 09:37:13 51°13.435 2°52.054 249.4 1.2 264 9.8
2012-04-27 09:38:14 51°13.433 2°52.025 258.7 1.1 263 9.5
2012-04-27 09:39:13 51°13.434 2°51.998 274.3 1.2 276 9.6
2012-04-27 09:40:13 51°13.434 2°51.953 267.4 2.1 264 9.7
2012-04-27 09:41:13 51°13.424 2°51.895 244.7 2.3 247 9.7
2012-04-27 09:42:13 51°13.409 2°51.845 232.9 1.8 246 9.6
2012-04-27 09:43:13 51°13.396 2°51.811 229.2 1.3 239 9.8
2012-04-27 09:44:13 51°13.39 2°51.783 239.8 0.9 255 9.9
2012-04-27 09:45:13 51°13.39 2°51.761 264.5 0.8 266 9.7
2012-04-27 09:46:13 51°13.388 2°51.717 258.6 2.7 255 9.9
2012-04-27 09:47:13 51°13.361 2°51.656 208.2 2.9 215 9.8
2012-04-27 09:48:13 51°13.323 2°51.642 157.2 2 174 9.6
2012-04-27 09:49:13 51°13.295 2°51.652 147.3 1.6 166 9.7
2012-04-27 09:50:13 51°13.271 2°51.657 151.2 1.3 180 9.5
2012-04-27 09:51:13 51°13.232 2°51.647 190.8 3.3 206 9.4
2012-04-27 09:52:13 51°13.196 2°51.566 259.9 4.1 259 9.4
2012-04-27 09:53:13 51°13.212 2°51.473 313.2 3.7 301 9.6
2012-04-27 09:54:13 51°13.255 2°51.403 336.4 3.7 323 9.8
2012-04-27 09:55:13 51°13.303 2°51.347 336.1 3.1 319 10.2
2012-04-27 09:56:13 51°13.331 2°51.297 326.4 2.2 302 10.4
2012-04-27 09:57:13 51°13.344 2°51.255 316.3 1.2 281 10.5
2012-04-27 09:58:13 51°13.339 2°51.24 318 0.5 205 10.6
2012-04-27 09:59:13 51°13.325 2°51.237 337.5 1.1 184 10.4
2012-04-27 10:00:13 51°13.303 2°51.233 353.5 1.3 192 10.4
2012-04-27 10:01:13 51°13.286 2°51.222 1.4 0.9 209 10.2
2012-04-27 10:02:13 51°13.276 2°51.208 5.9 0.6 218 10.2
2012-04-27 10:03:13 51°13.27 2°51.193 5.8 0.6 243 10.2
2012-04-27 10:04:13 51°13.267 2°51.179 357.3 0.6 260 10.2
2012-04-27 10:05:13 51°13.266 2°51.164 344.6 0.6 265 10.2
2012-04-27 10:06:13 51°13.266 2°51.147 333.8 0.6 268 10.2
2012-04-27 10:07:13 51°13.266 2°51.129 323.3 0.7 267 10.2
2012-04-27 10:08:13 51°13.265 2°51.112 316 0.7 263 10.4
2012-04-27 10:09:13 51°13.264 2°51.096 310.9 0.6 261 10.3
2012-04-27 10:10:13 51°13.264 2°51.081 310.1 0.5 265 10.4
2012-04-27 10:11:13 51°13.263 2°51.067 313.6 0.6 269 10.5
2012-04-27 10:12:13 51°13.263 2°51.055 317.5 0.5 289 10.5
2012-04-27 10:13:13 51°13.263 2°51.041 316.1 0.5 270 10.6
2012-04-27 10:14:13 51°13.262 2°51.028 315.7 0.5 262 10.4
2012-04-27 10:15:13 51°13.261 2°51.016 317.8 0.4 265 10.5
2012-04-27 10:16:13 51°13.26 2°51.002 317.9 0.6 256 10.4
2012-04-27 10:17:13 51°13.259 2°50.99 318.3 0.4 263 10.6
2012-04-27 10:18:13 51°13.257 2°50.978 318.4 0.5 260 10.7
2012-04-27 10:19:13 51°13.256 2°50.965 316.5 0.5 267 10.5
2012-04-27 10:20:13 51°13.256 2°50.95 311.8 0.5 272 10.5
2012-04-27 10:21:13 51°13.256 2°50.937 311.4 0.5 270 10.5
2012-04-27 10:22:13 51°13.256 2°50.927 314.9 0.4 259 10.5
2012-04-27 10:23:13 51°13.251 2°50.924 326 0.6 182 10.6
2012-04-27 10:24:13 51°13.238 2°50.923 350.3 1 190 10.6
2012-04-27 10:25:13 51°13.221 2°50.913 8.7 1.2 205 10.5
2012-04-27 10:26:13 51°13.206 2°50.899 20.4 0.9 213 10.5
2012-04-27 10:27:13 51°13.199 2°50.886 19.4 0.4 249 10.6
2012-04-27 10:28:13 51°13.201 2°50.877 12.9 0.4 311 10.5
2012-04-27 10:29:13 51°13.207 2°50.866 358 0.7 305 10.6
2012-04-27 10:30:13 51°13.213 2°50.85 344.6 0.6 296 10.3
2012-04-27 10:31:13 51°13.218 2°50.836 337.5 0.6 292 10.8
2012-04-27 10:32:13 51°13.22 2°50.823 331.8 0.5 279 10.9
2012-04-27 10:33:13 51°13.221 2°50.812 330.9 0.3 282 10.7
2012-04-27 10:34:13 51°13.221 2°50.804 331.1 0.3 266 10.7
2012-04-27 10:35:13 51°13.222 2°50.798 331.6 0.3 272 10.8
2012-04-27 10:36:13 51°13.222 2°50.792 333.1 0.3 256 10.8
2012-04-27 10:37:13 51°13.223 2°50.787 333.4 0.2 256 10.8
2012-04-27 10:38:13 51°13.223 2°50.781 330.9 0.2 281 10.8
2012-04-27 10:39:13 51°13.224 2°50.775 329.7 0.3 266 11
2012-04-27 10:40:13 51°13.226 2°50.768 329.6 0.3 296 10.9
2012-04-27 10:41:13 51°13.226 2°50.762 330.3 0.2 273 10.7
2012-04-27 10:42:13 51°13.226 2°50.757 334.7 0.2 266 10.9
2012-04-27 10:43:13 51°13.227 2°50.752 334.9 0.2 262 11
2012-04-27 10:44:13 51°13.227 2°50.748 333.3 0.3 251 10.9
2012-04-27 10:45:13 51°13.226 2°50.74 330.9 0.2 281 10.8
2012-04-27 10:46:13 51°13.226 2°50.733 332.1 0.3 257 11
2012-04-27 10:47:13 51°13.225 2°50.727 331.8 0.3 255 10.7
2012-04-27 10:48:13 51°13.224 2°50.72 333.9 0.2 246 10.8
2012-04-27 10:49:13 51°13.222 2°50.714 334.3 0.3 238 10.8
2012-04-27 10:50:13 51°13.219 2°50.706 335.7 0.4 235 10.8
2012-04-27 10:51:13 51°13.218 2°50.7 335.8 0.2 258 11
2012-04-27 10:52:13 51°13.216 2°50.694 338.5 0.3 238 10.9
2012-04-27 10:53:13 51°13.214 2°50.687 337.1 0.5 230 11
2012-04-27 10:54:13 51°13.213 2°50.679 335.5 0.4 238 10.9
2012-04-27 10:55:13 51°13.212 2°50.669 333.2 0.3 250 10.9
2012-04-27 10:56:13 51°13.211 2°50.662 333.4 0.2 249 11.1
2012-04-27 10:57:13 51°13.209 2°50.654 333.2 0.3 237 11.1
2012-04-27 10:58:13 51°13.208 2°50.648 335.6 0.1 265 11.3
2012-04-27 10:59:13 51°13.207 2°50.642 336.5 0.3 254 10.9
2012-04-27 11:00:13 51°13.207 2°50.633 333.6 0.3 274 11.1
2012-04-27 11:01:13 51°13.206 2°50.625 331.6 0.2 264 11.1
2012-04-27 11:02:13 51°13.207 2°50.618 330.3 0.2 262 10.9
2012-04-27 11:03:13 51°13.207 2°50.612 331.3 0.2 243 11.1
2012-04-27 11:04:13 51°13.208 2°50.607 331.8 0.3 271 11.2
2012-04-27 11:05:13 51°13.207 2°50.599 331.3 0.3 284 11.1
2012-04-27 11:06:13 51°13.199 2°50.597 341.3 1 181 11.1
2012-04-27 11:07:13 51°13.18 2°50.593 2.2 1.5 192 11.2
2012-04-27 11:08:13 51°13.158 2°50.578 20.3 1.5 208 11.3
2012-04-27 11:09:13 51°13.142 2°50.56 33.3 0.7 220 11.1
2012-04-27 11:10:13 51°13.141 2°50.556 49.8 0.3 48 11.2
2012-04-27 11:11:13 51°13.144 2°50.567 73.8 0.7 72 11.1
2012-04-27 11:12:13 51°13.142 2°50.585 104.5 0.7 119 11.1
2012-04-27 11:13:13 51°13.133 2°50.596 126.9 0.7 153 11.1
2012-04-27 11:14:13 51°13.122 2°50.602 138.9 0.6 162 11.1
2012-04-27 11:15:13 51°13.114 2°50.602 143.4 0.3 187 11.2
2012-04-27 11:16:13 51°13.109 2°50.598 145.2 0.3 219 11
2012-04-27 11:17:13 51°13.106 2°50.594 145.3 0.3 219 11.3
2012-04-27 11:18:13 51°13.103 2°50.589 145.4 0.2 244 11
2012-04-27 11:19:13 51°13.101 2°50.582 144.2 0.2 235 11.2
2012-04-27 11:20:13 51°13.099 2°50.575 142 0.3 226 11
2012-04-27 11:21:13 51°13.098 2°50.568 142.2 0.3 245 10.9
2012-04-27 11:22:13 51°13.096 2°50.564 142.9 0.3 231 11.3
2012-04-27 11:23:13 51°13.095 2°50.558 140.5 0.2 237 11.3
2012-04-27 11:24:13 51°13.094 2°50.555 140.4 0.1 235 11.2
2012-04-27 11:25:13 51°13.092 2°50.55 139.3 0.3 235 11.2
2012-04-27 11:26:13 51°13.091 2°50.545 140.1 0.3 240 11.2
2012-04-27 11:27:13 51°13.088 2°50.54 140.9 0.3 223 11.3
2012-04-27 11:28:13 51°13.086 2°50.534 143.2 0.3 228 11.1
2012-04-27 11:29:13 51°13.081 2°50.527 145.3 0.3 224 11.2
2012-04-27 11:30:13 51°13.077 2°50.52 146 0.3 222 11.2
2012-04-27 11:31:13 51°13.074 2°50.514 147.5 0.2 222 11
2012-04-27 11:32:13 51°13.071 2°50.509 147 0.2 225 11.1
2012-04-27 11:33:13 51°13.068 2°50.504 145.7 0.2 231 11.3
2012-04-27 11:34:13 51°13.065 2°50.5 145.6 0.3 222 11.3
2012-04-27 11:35:13 51°13.062 2°50.495 143.8 0.3 213 11.3
2012-04-27 11:36:13 51°13.06 2°50.491 143.2 0.2 247 11.2
2012-04-27 11:37:13 51°13.058 2°50.487 142 0.1 174 11.3
2012-04-27 11:38:13 51°13.056 2°50.484 142.3 0.2 232 11.2
2012-04-27 11:39:13 51°13.054 2°50.481 142.8 0.2 244 11.3
2012-04-27 11:40:13 51°13.051 2°50.477 143.8 0.3 226 11.3
2012-04-27 11:41:13 51°13.05 2°50.473 141.6 0.1 258 11.3
2012-04-27 11:42:13 51°13.048 2°50.468 139.3 0.2 256 11.4
2012-04-27 11:43:13 51°13.047 2°50.463 137.3 0.1 286 11.4
2012-04-27 11:44:13 51°13.045 2°50.458 139.2 0.1 264 11.3
2012-04-27 11:45:13 51°13.044 2°50.454 139.7 0.1 222 11.4
2012-04-27 11:46:13 51°13.042 2°50.452 138.6 0.1 236 11.3
2012-04-27 11:47:13 51°13.039 2°50.449 139.8 0.2 198 11.5
2012-04-27 11:48:13 51°13.037 2°50.446 144 0.3 195 11.3
2012-04-27 11:49:13 51°13.033 2°50.443 146.6 0.2 200 11.5
2012-04-27 11:50:13 51°13.03 2°50.442 147.7 0.3 170 11.4
2012-04-27 11:51:13 51°13.026 2°50.441 148.9 0.3 206 11.3
2012-04-27 11:52:13 51°13.024 2°50.442 146.9 0.1 143 11.2
2012-04-27 11:53:13 51°13.021 2°50.441 148.9 0.2 164 11.2
2012-04-27 11:54:13 51°13.018 2°50.44 149.4 0.1 152 11.3
2012-04-27 11:55:13 51°13.016 2°50.438 149.2 0.1 215 11.4
2012-04-27 11:56:13 51°13.014 2°50.437 147.2 0.1 226 11.5
2012-04-27 11:57:13 51°13.011 2°50.435 147.4 0.2 204 11.5
2012-04-27 11:58:13 51°13.009 2°50.434 149.2 0.1 182 11.4
2012-04-27 11:59:13 51°13.006 2°50.434 149.9 0.2 161 11.4
2012-04-27 12:00:13 51°13.003 2°50.435 150.1 0.2 180 11.3
2012-04-27 12:01:13 51°12.999 2°50.434 153.9 0.3 197 11.4
2012-04-27 12:02:13 51°12.994 2°50.434 156 0.3 181 11.3
2012-04-27 12:03:13 51°12.989 2°50.434 158.4 0.3 175 11.4
2012-04-27 12:04:13 51°12.984 2°50.434 161.4 0.4 182 11.3
2012-04-27 12:05:13 51°12.978 2°50.433 161.9 0.3 168 11.3
2012-04-27 12:06:13 51°12.972 2°50.434 162.8 0.3 179 11.2
2012-04-27 12:07:13 51°12.967 2°50.434 164.8 0.3 184 11.2
2012-04-27 12:08:13 51°12.961 2°50.433 164 0.3 191 11.2
2012-04-27 12:09:13 51°12.954 2°50.432 167 0.4 209 11.2
2012-04-27 12:10:13 51°12.949 2°50.432 169.2 0.4 187 11.2
2012-04-27 12:11:13 51°12.943 2°50.432 169.5 0.4 173 11.1
2012-04-27 12:12:13 51°12.938 2°50.432 168.6 0.3 152 11.2
2012-04-27 12:13:13 51°12.933 2°50.433 162.3 0.2 170 11.2
2012-04-27 12:14:13 51°12.928 2°50.433 158.8 0.3 182 11.2
2012-04-27 12:15:13 51°12.923 2°50.434 158.6 0.3 173 11.3
2012-04-27 12:16:13 51°12.918 2°50.436 159.2 0.3 166 11
2012-04-27 12:17:13 51°12.912 2°50.438 159.7 0.3 164 11.1
2012-04-27 12:18:13 51°12.907 2°50.439 164.9 0.3 175 11.2
2012-04-27 12:19:13 51°12.901 2°50.44 169 0.3 185 11.2
2012-04-27 12:20:13 51°12.895 2°50.442 168.9 0.4 183 11.3
2012-04-27 12:21:13 51°12.888 2°50.442 172.6 0.3 184 11.1
2012-04-27 12:22:13 51°12.882 2°50.443 175.4 0.4 178 11.1
2012-04-27 12:23:13 51°12.875 2°50.443 176 0.4 179 10.9
2012-04-27 12:24:13 51°12.868 2°50.445 176.1 0.3 166 11
2012-04-27 12:25:13 51°12.862 2°50.447 174.4 0.4 177 10.9
2012-04-27 12:26:13 51°12.857 2°50.449 171 0.2 171 10.9
2012-04-27 12:27:13 51°12.849 2°50.453 159 1 165 10.9
2012-04-27 12:28:13 51°12.829 2°50.47 129.3 1.7 139 10.8
2012-04-27 12:29:13 51°12.823 2°50.519 73.6 3.2 70 10.6
2012-04-27 12:30:13 51°12.871 2°50.651 61.3 7.1 60 10.5
2012-04-27 12:31:13 51°12.921 2°50.816 66.9 6.8 66 10.4
2012-04-27 12:32:13 51°12.975 2°50.963 56 6.2 53 10.5
2012-04-27 12:33:13 51°13.044 2°51.081 45.8 6.1 44 10.6
2012-04-27 12:34:13 51°13.115 2°51.198 51.4 6.2 52 10.7
2012-04-27 12:35:13 51°13.173 2°51.331 60.7 6.2 60 10.8
2012-04-27 12:36:13 51°13.225 2°51.471 59.3 6.2 58 10.8
2012-04-27 12:37:13 51°13.281 2°51.607 56.9 6.2 55 10.8
2012-04-27 12:38:13 51°13.343 2°51.736 52.6 6.2 51 10.9
2012-04-27 12:39:13 51°13.406 2°51.865 54 6.2 54 10.8
2012-04-27 12:40:13 51°13.464 2°52.002 59.2 6.2 58 10.9
2012-04-27 12:41:13 51°13.518 2°52.143 59.6 6.2 59 10.9
2012-04-27 12:42:13 51°13.575 2°52.281 56.6 6.2 54 10.8
2012-04-27 12:43:13 51°13.638 2°52.412 51.5 6.3 52 10.7
2012-04-27 12:44:13 51°13.704 2°52.542 54.2 6.3 52 10.6
2012-04-27 12:45:13 51°13.763 2°52.681 57.9 6.3 58 10.6
2012-04-27 12:46:13 51°13.82 2°52.822 57.4 6.4 57 10.6
2012-04-27 12:47:13 51°13.881 2°52.959 53.1 6.3 52 10.4
2012-04-27 12:48:13 51°13.948 2°53.091 52.5 6.4 52 10.5
2012-04-27 12:49:13 51°14.012 2°53.226 54.7 6.4 56 10.4
2012-04-27 12:50:13 51°14.071 2°53.369 58.8 6.4 58 10.2
2012-04-27 12:51:13 51°14.131 2°53.512 55.4 6.5 54 10.2
2012-04-27 12:52:13 51°14.201 2°53.64 45.6 6.4 44 10.2
2012-04-27 12:53:13 51°14.277 2°53.766 52.1 6.9 52 10.3
2012-04-27 12:54:13 51°14.347 2°53.924 54.2 7.4 53 10.4
2012-04-27 12:55:13 51°14.417 2°54.089 59.1 7.6 58 10.6
2012-04-27 12:56:13 51°14.491 2°54.251 54.9 7.6 54 10.8
2012-04-27 12:57:13 51°14.567 2°54.414 56.2 7.8 58 11
2012-04-27 12:58:13 51°14.625 2°54.6 74 8.1 77 11.2
2012-04-27 12:59:13 51°14.61 2°54.809 115.2 8.2 118 12.2
2012-04-27 13:00:13 51°14.532 2°54.986 131.4 8.3 132 12.7
2012-04-27 13:01:13 51°14.425 2°55.119 146.1 8 147 11
2012-04-27 13:02:17 51°14.323 2°55.227 147 6.5 146 -999
2012-04-27 13:03:16 51°14.229 2°55.324 148.9 7 148 -999
2012-04-27 13:04:16 51°14.127 2°55.414 152.1 7 152 -999
2012-04-27 13:05:16 51°14.021 2°55.492 157.5 7 156 -999
2012-04-27 13:06:16 51°13.915 2°55.565 158.2 6.5 157 -999
2012-04-27 13:07:17 51°13.827 2°55.63 152 5.1 150 11.2
2012-04-27 13:08:16 51°13.762 2°55.711 140.8 5.1 139 -999
2012-04-27 13:09:17 51°13.701 2°55.795 141 4.5 138 -999
2012-04-27 13:10:16 51°13.653 2°55.863 144.5 3.5 141 -999
2012-04-27 13:11:15 51°13.626 2°55.894 145.5 0.5 138 10.9
2012-04-27 13:12:16 51°13.624 2°55.895 143.1 0.2 250 -999
2012-04-27 13:13:16 51°13.623 2°55.892 127 0.1 355 -999
2012-04-27 13:14:16 51°13.623 2°55.893 125.5 -999 123 -999
2012-04-27 13:15:16 51°13.623 2°55.893 125.6 0.1 58 -999
2012-04-27 13:16:17 51°13.623 2°55.893 127 0.1 35 -999
2012-04-27 13:17:16 51°13.623 2°55.894 126.8 -999 169 -999
2012-04-27 13:18:17 51°13.623 2°55.894 126.6 -999 336 -999
2012-04-27 13:19:16 51°13.622 2°55.895 126.5 -999 12 -999
2012-04-27 13:20:17 51°13.622 2°55.895 126.6 -999 115 -999
2012-04-27 13:21:16 51°13.622 2°55.894 126.5 0.1 206 -999
2012-04-27 13:22:16 51°13.622 2°55.894 126.5 -999 207 -999
2012-04-27 13:23:17 51°13.621 2°55.893 126.5 0.1 215 -999
2012-04-27 13:24:16 51°13.622 2°55.894 126.5 -999 108 -999
2012-04-27 13:25:17 51°13.622 2°55.894 126.4 0.1 26 -999
2012-04-27 13:26:16 51°13.623 2°55.895 126.4 -999 44 -999
2012-04-27 13:27:17 51°13.623 2°55.895 126.4 -999 79 -999
2012-04-27 13:28:16 51°13.623 2°55.894 126.4 -999 132 -999
2012-04-27 13:29:17 51°13.623 2°55.894 126.4 -999 221 -999
2012-04-27 13:30:16 51°13.623 2°55.894 126.4 -999 33 -999
2012-04-27 13:31:16 51°13.623 2°55.894 126.4 -999 275 -999
2012-04-27 13:32:16 51°13.623 2°55.894 126.5 -999 316 -999
2012-04-27 13:33:16 51°13.623 2°55.894 126.5 -999 44 -999
2012-04-27 13:34:16 51°13.623 2°55.895 126.5 -999 15 -999
2012-04-27 13:35:16 51°13.623 2°55.895 126.5 -999 337 -999
2012-04-27 13:36:16 51°13.623 2°55.895 126.5 -999 336 -999
2012-04-27 13:37:16 51°13.623 2°55.894 126.5 -999 65 -999
2012-04-27 13:38:17 51°13.623 2°55.894 126.6 -999 149 -999
2012-04-27 13:39:16 51°13.622 2°55.895 126.7 -999 175 -999
2012-04-27 13:40:16 51°13.622 2°55.895 126.7 -999 31 -999
2012-04-27 13:41:16 51°13.622 2°55.894 126.7 -999 336 -999
2012-04-27 13:42:16 51°13.622 2°55.895 126.8 -999 276 -999
2012-04-27 13:43:16 51°13.622 2°55.895 126.9 -999 260 -999
2012-04-27 13:44:16 51°13.622 2°55.894 126.9 -999 225 -999
2012-04-27 13:45:16 51°13.623 2°55.894 126.9 -999 325 -999
2012-04-27 13:46:16 51°13.622 2°55.894 126.9 -999 337 -999
2012-04-27 13:47:17 51°13.622 2°55.896 127 -999 269 -999
2012-04-27 13:48:16 51°13.623 2°55.896 127 -999 120 -999
2012-04-27 13:49:16 51°13.621 2°55.895 127.1 0.1 181 -999
2012-04-27 13:50:16 51°13.621 2°55.896 127.1 -999 209 -999
2012-04-27 13:51:16 51°13.621 2°55.896 127.1 -999 19 -999
2012-04-27 13:52:16 51°13.62 2°55.895 127.1 -999 325 -999
2012-04-27 13:53:16 51°13.62 2°55.896 127.2 -999 334 -999
2012-04-27 13:54:17 51°13.62 2°55.896 127.2 0.1 346 -999
2012-04-27 13:55:16 51°13.621 2°55.895 127.3 -999 67 -999
2012-04-27 13:56:17 51°13.621 2°55.895 127.3 0.2 342 -999
2012-04-27 13:57:16 51°13.621 2°55.896 127.3 -999 177 -999
2012-04-27 13:58:16 51°13.621 2°55.896 127.3 -999 355 -999
2012-04-27 13:59:16 51°13.621 2°55.895 127.3 0.1 352 -999
2012-04-27 14:00:16 51°13.621 2°55.895 127.3 0.1 179 -999
2012-04-27 14:01:16 51°13.621 2°55.895 127.3 0.1 9 -999
2012-04-27 14:02:16 51°13.62 2°55.895 127.4 0.1 163 -999
2012-04-27 14:03:17 51°13.621 2°55.895 127.4 -999 169 -999
2012-04-27 14:04:16 51°13.62 2°55.895 127.4 0.1 339 -999
2012-04-27 14:05:16 51°13.621 2°55.896 127.4 0.1 186 -999
2012-04-27 14:06:16 51°13.622 2°55.896 127.4 -999 337 -999
2012-04-27 14:07:16 51°13.621 2°55.896 127.4 0.1 347 -999
2012-04-27 14:08:16 51°13.622 2°55.896 127.5 -999 337 -999
2012-04-27 14:09:16 51°13.622 2°55.896 127.6 0.1 139 -999
2012-04-27 14:10:16 51°13.622 2°55.896 127.5 -999 11 -999
2012-04-27 14:11:16 51°13.623 2°55.896 127.5 0.1 352 -999
2012-04-27 14:12:16 51°13.623 2°55.895 127.4 -999 118 -999
2012-04-27 14:13:16 51°13.623 2°55.895 127.4 -999 4 -999
2012-04-27 14:14:16 51°13.622 2°55.894 127.4 -999 245 -999
2012-04-27 14:15:16 51°13.622 2°55.894 127.4 -999 2 -999
2012-04-27 14:16:16 51°13.623 2°55.894 127.4 -999 316 -999
2012-04-27 14:17:16 51°13.623 2°55.894 127.4 -999 358 -999
2012-04-27 14:18:16 51°13.623 2°55.894 127.4 -999 200 -999
2012-04-27 14:19:16 51°13.624 2°55.894 127.4 -999 202 -999
2012-04-27 14:20:16 51°13.624 2°55.895 127.4 -999 15 -999
2012-04-27 14:21:17 51°13.624 2°55.895 127.4 -999 187 -999
2012-04-27 14:22:16 51°13.624 2°55.895 127.3 0.1 197 -999
2012-04-27 14:23:16 51°13.625 2°55.895 127.3 -999 351 -999
2012-04-27 14:24:16 51°13.625 2°55.895 127.3 0.1 5 -999
2012-04-27 14:25:16 51°13.624 2°55.895 127.3 -999 35 -999
2012-04-27 14:26:16 51°13.624 2°55.895 127.2 -999 334 -999
2012-04-27 14:27:16 51°13.624 2°55.895 127.2 -999 192 -999
2012-04-27 14:28:16 51°13.625 2°55.895 127.2 -999 172 -999
2012-04-27 14:29:16 51°13.625 2°55.895 127.2 -999 358 -999
2012-04-27 14:30:17 51°13.624 2°55.895 127.2 0.1 351 -999
2012-04-27 14:31:16 51°13.624 2°55.895 127.2 -999 330 -999
2012-04-27 14:32:16 51°13.623 2°55.895 127.2 0.1 147 -999
2012-04-27 14:33:16 51°13.623 2°55.894 127.2 0.1 337 -999
2012-04-27 14:34:16 51°13.623 2°55.896 127.2 -999 134 -999
2012-04-27 14:35:16 51°13.623 2°55.895 127.2 -999 33 -999
2012-04-27 14:36:16 51°13.623 2°55.894 127.2 0.1 347 -999
2012-04-27 14:37:17 51°13.625 2°55.895 127.2 0.1 335 -999
2012-04-27 14:38:16 51°13.623 2°55.894 127.1 0.1 334 -999
2012-04-27 14:39:17 51°13.624 2°55.894 127.1 -999 53 -999
2012-04-27 14:40:16 51°13.625 2°55.895 127.1 0.1 336 -999
2012-04-27 14:41:17 51°13.623 2°55.894 127.1 0.1 338 -999
2012-04-27 14:42:16 51°13.622 2°55.894 127.1 0.1 335 -999
2012-04-27 14:43:17 51°13.623 2°55.894 127 -999 320 -999
2012-04-27 14:44:16 51°13.623 2°55.894 127 0.1 136 -999
2012-04-27 14:45:17 51°13.623 2°55.894 127 -999 318 -999
2012-04-27 14:46:16 51°13.625 2°55.895 127 0.1 328 -999
2012-04-27 14:47:16 51°13.624 2°55.895 127 0.1 332 -999
2012-04-27 14:48:17 51°13.622 2°55.894 126.9 0.1 318 -999
2012-04-27 14:49:16 51°13.623 2°55.894 126.9 0.1 354 -999
2012-04-27 14:50:17 51°13.622 2°55.894 126.9 0.1 322 -999
2012-04-27 14:51:16 51°13.623 2°55.895 126.9 0.1 328 -999
2012-04-27 14:52:16 51°13.623 2°55.895 126.9 -999 358 -999
2012-04-27 14:53:16 51°13.622 2°55.896 126.9 0.1 152 -999
2012-04-27 14:54:16 51°13.623 2°55.895 126.9 -999 32 -999
2012-04-27 14:55:16 51°13.623 2°55.896 126.9 -999 299 -999
2012-04-27 14:56:16 51°13.623 2°55.896 126.9 -999 315 -999
2012-04-27 14:57:17 51°13.622 2°55.895 126.9 -999 254 -999
2012-04-27 14:58:16 51°13.621 2°55.896 126.9 -999 126 -999
2012-04-27 14:59:17 51°13.621 2°55.895 126.9 0.1 325 -999
2012-04-27 15:00:16 51°13.622 2°55.896 126.9 -999 215 -999
2012-04-27 15:01:17 51°13.622 2°55.895 126.9 0.1 343 -999
2012-04-27 15:02:16 51°13.622 2°55.894 127 0.1 11 -999
2012-04-27 15:03:16 51°13.622 2°55.894 127 -999 121 -999
2012-04-27 15:04:17 51°13.623 2°55.894 127.1 0.1 332 -999
2012-04-27 15:05:16 51°13.623 2°55.894 127.1 -999 341 -999
2012-04-27 15:06:17 51°13.623 2°55.893 127.1 -999 170 -999
2012-04-27 15:07:16 51°13.624 2°55.894 127.1 0.1 197 -999
2012-04-27 15:08:17 51°13.624 2°55.893 127.1 0.1 326 -999
2012-04-27 15:09:16 51°13.625 2°55.894 127.1 -999 16 -999
2012-04-27 15:10:17 51°13.624 2°55.894 127.1 -999 165 -999
2012-04-27 15:11:16 51°13.622 2°55.895 127.1 -999 57 -999
2012-04-27 15:12:16 51°13.621 2°55.895 127.1 0.1 328 -999
2012-04-27 15:13:17 51°13.621 2°55.895 127.1 -999 237 -999
2012-04-27 15:14:16 51°13.621 2°55.895 127.1 -999 241 -999
2012-04-27 15:15:17 51°13.622 2°55.895 127.1 0.1 341 -999
2012-04-27 15:16:16 51°13.622 2°55.894 127 0.1 120 -999
2012-04-27 15:17:17 51°13.623 2°55.894 127 -999 53 -999
2012-04-27 15:18:16 51°13.623 2°55.895 126.1 -999 314 -999
2012-04-27 15:19:17 51°13.623 2°55.895 125.4 -999 345 -999
2012-04-27 15:20:16 51°13.623 2°55.895 125.7 -999 217 -999
2012-04-27 15:21:16 51°13.623 2°55.895 125.4 0.1 333 -999
2012-04-27 15:22:16 51°13.623 2°55.895 124.9 0.1 168 -999
2012-04-27 15:23:16 51°13.623 2°55.895 133.2 0.1 335 -999
2012-04-27 15:24:17 51°13.623 2°55.897 140.2 0.1 79 -999
2012-04-27 15:25:16 51°13.647 2°55.873 146 2.7 325 -999
2012-04-27 15:26:17 51°13.667 2°55.853 146.7 0.4 332 -999
2012-04-27 15:27:16 51°13.661 2°55.871 120.8 2 121 -999
2012-04-27 15:28:16 51°13.644 2°55.94 104.9 2.9 103 -999
2012-04-27 15:29:16 51°13.638 2°56.002 98.5 1.6 98 11.3
2012-04-27 15:30:16 51°13.636 2°56.018 127.1 0.2 49 -999